Terminal Aerodrome Forecast
Issued by NWS Twin Cities, MN

Home | Current Version | Previous Version | Text Only | Print | Product List | Glossary Off
Versions: 1 2 3 4 5 6 7 8 9 10 11 12 13 14 15 16 17 18

000
FTUS43 KMPX 270524
TAFEAU
TAF
KEAU 270524Z 2706/2806 00000KT 1 1/2SM BR SCT003
      TEMPO 2706/2710 3/4SM BR BKN003
     FM271000 VRB02KT 1SM BR SCT003
      TEMPO 2710/2712 1/4SM FG VV002
     FM271300 16005KT P6SM SCT250
     FM271800 18008KT P6SM SCT050 BKN250
     FM280300 17007KT P6SM SCT040 BKN090=

USA.gov is the U.S. government's official web portal to all federal, state and local government web resources and services.